createdAt,value
2022-12-03T00:01:38.873Z,2.29
2022-12-03T00:04:09.021Z,2.26
2022-12-03T00:06:36.634Z,2.32
2022-12-03T00:09:05.896Z,2.30
2022-12-03T00:11:35.579Z,2.23
2022-12-03T00:14:03.089Z,2.22
2022-12-03T00:16:30.674Z,2.23
2022-12-03T00:18:58.228Z,2.22
2022-12-03T00:21:25.748Z,2.24
2022-12-03T00:23:53.347Z,2.23
2022-12-03T00:26:20.876Z,2.21
2022-12-03T00:28:48.593Z,2.18
2022-12-03T00:31:21.417Z,2.24
2022-12-03T00:33:49.050Z,2.25
2022-12-03T00:36:16.576Z,2.21
2022-12-03T00:38:44.168Z,2.21
2022-12-03T00:41:12.002Z,2.22
2022-12-03T00:43:39.702Z,2.25
2022-12-03T00:46:11.100Z,2.26
2022-12-03T00:48:38.657Z,2.23
2022-12-03T00:51:06.277Z,2.16
2022-12-03T00:53:33.818Z,2.15
2022-12-03T00:56:02.202Z,2.14
2022-12-03T00:58:29.768Z,2.21
2022-12-03T01:00:57.269Z,2.21
2022-12-03T01:03:24.795Z,2.22
2022-12-03T01:05:52.326Z,2.15
2022-12-03T01:08:21.966Z,2.15
2022-12-03T01:10:49.556Z,2.18
2022-12-03T01:13:17.112Z,2.24
2022-12-03T01:15:44.661Z,2.27
2022-12-03T01:18:14.636Z,2.23
2022-12-03T01:20:42.274Z,2.18
2022-12-03T01:23:12.535Z,2.25
2022-12-03T01:25:41.260Z,2.26
2022-12-03T01:28:09.009Z,2.27
2022-12-03T01:30:59.246Z,2.27
2022-12-03T01:33:26.346Z,2.30
2022-12-03T01:35:53.886Z,2.30
2022-12-03T01:38:21.599Z,2.28
2022-12-03T01:40:52.080Z,2.27
2022-12-03T01:43:19.597Z,2.27
2022-12-03T01:45:49.589Z,2.28
2022-12-03T01:48:17.837Z,2.26
2022-12-03T01:50:46.076Z,2.24
2022-12-03T01:53:18.301Z,2.29
2022-12-03T01:55:49.058Z,2.30
2022-12-03T01:58:22.289Z,2.29
2022-12-03T02:00:49.866Z,2.33
2022-12-03T02:03:26.531Z,2.32
2022-12-03T02:05:54.607Z,2.33
2022-12-03T02:08:34.937Z,2.34
2022-12-03T02:11:10.352Z,2.33
2022-12-03T02:13:38.140Z,2.32
2022-12-03T02:16:06.993Z,2.33
2022-12-03T02:18:37.569Z,2.31
2022-12-03T02:21:19.438Z,2.34
2022-12-03T02:24:07.718Z,2.30
2022-12-03T02:26:40.075Z,2.33
2022-12-03T02:29:07.750Z,2.32
2022-12-03T02:31:35.511Z,2.32
2022-12-03T02:34:09.984Z,2.28
2022-12-03T02:36:39.127Z,2.28
2022-12-03T02:39:09.104Z,2.30
2022-12-03T02:41:53.901Z,2.30
2022-12-03T02:44:23.787Z,2.30
2022-12-03T02:46:51.378Z,2.27
2022-12-03T02:49:19.045Z,2.32
2022-12-03T02:51:46.801Z,2.36
2022-12-03T02:54:14.448Z,2.38
2022-12-03T02:56:42.043Z,2.40
2022-12-03T02:59:09.901Z,2.39
2022-12-03T03:01:37.786Z,2.41
2022-12-03T03:04:06.860Z,2.40
2022-12-03T03:06:34.658Z,2.40
2022-12-03T03:09:02.248Z,2.38
2022-12-03T03:11:31.370Z,2.40
2022-12-03T03:13:58.997Z,2.34
2022-12-03T03:16:26.606Z,2.40
2022-12-03T03:18:54.324Z,2.39
2022-12-03T03:21:22.111Z,2.39
2022-12-03T03:23:49.689Z,2.34
2022-12-03T03:26:17.384Z,2.37
2022-12-03T03:28:49.156Z,2.41
2022-12-03T03:31:23.435Z,2.41
2022-12-03T03:33:52.614Z,2.42
2022-12-03T03:36:21.268Z,2.41
2022-12-03T03:38:49.103Z,2.40
2022-12-03T03:41:18.722Z,2.42
2022-12-03T03:43:48.776Z,2.37
2022-12-03T03:46:20.186Z,2.25
2022-12-03T03:48:49.610Z,2.37
2022-12-03T03:51:20.604Z,2.38
2022-12-03T03:53:50.970Z,2.33
2022-12-03T03:56:23.399Z,2.31
2022-12-03T03:58:50.926Z,2.34
2022-12-03T04:01:19.865Z,2.33
2022-12-03T04:03:47.565Z,2.36
2022-12-03T04:06:17.636Z,2.36
2022-12-03T04:08:45.179Z,2.37
2022-12-03T04:11:30.332Z,2.40
2022-12-03T04:14:00.223Z,2.41
2022-12-03T04:16:29.047Z,2.44
2022-12-03T04:18:59.438Z,2.38
2022-12-03T04:21:44.774Z,2.43
2022-12-03T04:24:12.881Z,2.42
2022-12-03T04:26:58.076Z,2.37
2022-12-03T04:29:25.589Z,2.42
2022-12-03T04:32:10.656Z,2.41
2022-12-03T04:34:55.799Z,2.41
2022-12-03T04:37:25.872Z,2.42
2022-12-03T04:39:53.447Z,2.36
2022-12-03T04:42:20.987Z,2.37
2022-12-03T04:44:48.693Z,2.34
2022-12-03T04:47:21.881Z,2.30
2022-12-03T04:49:51.573Z,2.32
2022-12-03T04:52:20.901Z,2.34
2022-12-03T04:54:48.551Z,2.35
2022-12-03T04:57:16.053Z,2.32
2022-12-03T04:59:44.605Z,2.31
2022-12-03T05:02:12.171Z,2.32
2022-12-03T05:04:39.704Z,2.32
2022-12-03T05:07:10.643Z,2.29
2022-12-03T05:09:40.773Z,2.30
2022-12-03T05:12:13.132Z,2.31
2022-12-03T05:14:40.697Z,2.33
2022-12-03T05:17:08.317Z,2.25
2022-12-03T05:19:55.984Z,2.16
2022-12-03T05:22:23.495Z,2.06
2022-12-03T05:24:51.351Z,1.92
2022-12-03T05:27:23.673Z,1.90
2022-12-03T05:29:51.780Z,1.91
2022-12-03T05:32:21.759Z,1.98
2022-12-03T05:34:49.360Z,2.06
2022-12-03T05:37:17.009Z,2.08
2022-12-03T05:39:47.081Z,2.13
2022-12-03T05:42:31.924Z,2.16
2022-12-03T05:44:59.437Z,2.17
2022-12-03T05:47:27.006Z,2.20
2022-12-03T05:49:54.651Z,2.25
2022-12-03T05:52:26.449Z,2.26
2022-12-03T05:54:54.227Z,2.28
2022-12-03T05:57:21.980Z,2.31
2022-12-03T05:59:50.701Z,2.31
2022-12-03T06:02:18.325Z,2.32
2022-12-03T06:04:46.085Z,2.34
2022-12-03T06:07:16.046Z,2.34
2022-12-03T06:09:43.583Z,2.36
2022-12-03T06:12:14.535Z,2.37
2022-12-03T06:14:42.105Z,2.37
2022-12-03T06:17:09.937Z,2.38
2022-12-03T06:19:39.959Z,2.34
2022-12-03T06:22:07.583Z,2.43
2022-12-03T06:24:35.113Z,2.44
2022-12-03T06:27:04.913Z,2.40
2022-12-03T06:29:34.937Z,2.40
2022-12-03T06:32:03.634Z,2.46
2022-12-03T06:34:33.569Z,2.50
2022-12-03T06:37:01.392Z,2.56
2022-12-03T06:39:31.480Z,2.60
2022-12-03T06:41:58.974Z,2.60
2022-12-03T06:44:26.511Z,2.60
2022-12-03T06:46:56.616Z,2.62
2022-12-03T06:49:24.355Z,2.64
2022-12-03T06:51:51.881Z,2.62
2022-12-03T06:54:21.787Z,2.68
2022-12-03T06:56:51.843Z,2.74
2022-12-03T06:59:19.385Z,2.81
2022-12-03T07:01:46.999Z,2.82
2022-12-03T07:04:17.074Z,2.84
2022-12-03T07:06:44.807Z,2.82
2022-12-03T07:09:12.326Z,2.82
2022-12-03T07:11:42.653Z,2.87
2022-12-03T07:14:12.077Z,2.93
2022-12-03T07:16:43.238Z,2.73
2022-12-03T07:19:11.199Z,2.95
2022-12-03T07:21:39.136Z,2.98
2022-12-03T07:24:07.312Z,2.99
2022-12-03T07:26:34.881Z,3.00
2022-12-03T07:29:02.507Z,2.99
2022-12-03T07:31:30.243Z,2.99
2022-12-03T07:33:57.835Z,3.03
2022-12-03T07:36:34.258Z,3.07
2022-12-03T07:39:01.941Z,3.13
2022-12-03T07:41:29.508Z,3.19
2022-12-03T07:43:57.119Z,3.21
2022-12-03T07:46:24.702Z,3.24
2022-12-03T07:48:52.546Z,3.22
2022-12-03T07:51:20.288Z,3.23
2022-12-03T07:53:48.225Z,3.20
2022-12-03T07:56:15.916Z,3.28
2022-12-03T07:58:43.419Z,3.30
2022-12-03T08:01:11.314Z,3.30
2022-12-03T08:03:39.508Z,3.35
2022-12-03T08:06:08.570Z,3.34
2022-12-03T08:08:37.446Z,3.43
2022-12-03T08:11:09.623Z,3.45
2022-12-03T08:13:39.419Z,3.48
2022-12-03T08:16:17.760Z,3.56
2022-12-03T08:18:47.039Z,3.65
2022-12-03T08:21:17.883Z,3.68
2022-12-03T08:23:46.118Z,3.75
2022-12-03T08:26:27.547Z,3.75
2022-12-03T08:28:55.539Z,3.88
2022-12-03T08:31:33.136Z,3.90
2022-12-03T08:34:15.010Z,3.93
2022-12-03T08:36:42.558Z,3.88
2022-12-03T08:39:34.598Z,3.95
2022-12-03T08:42:37.994Z,4.06
2022-12-03T08:45:23.625Z,4.07
2022-12-03T08:47:51.197Z,4.06
2022-12-03T08:50:30.923Z,3.94
2022-12-03T08:53:24.492Z,3.96
2022-12-03T08:55:59.984Z,3.90
2022-12-03T08:58:32.444Z,4.15
2022-12-03T09:01:20.563Z,4.37
2022-12-03T09:03:55.823Z,4.57
2022-12-03T09:06:26.283Z,4.80
2022-12-03T09:08:56.377Z,4.93
2022-12-03T09:11:23.982Z,4.78
2022-12-03T09:13:56.961Z,4.64
2022-12-03T09:16:24.610Z,4.56
2022-12-03T09:18:54.559Z,4.69
2022-12-03T09:21:24.322Z,4.81
2022-12-03T09:23:51.890Z,5.02
2022-12-03T09:26:19.473Z,5.02
2022-12-03T09:28:48.307Z,4.94
2022-12-03T09:31:19.083Z,5.16
2022-12-03T09:33:46.683Z,5.18
2022-12-03T09:36:14.243Z,5.01
2022-12-03T09:38:46.248Z,5.06
2022-12-03T09:41:15.673Z,5.13
2022-12-03T09:44:03.507Z,5.12
2022-12-03T09:46:34.894Z,5.19
2022-12-03T09:49:03.568Z,5.08
2022-12-03T09:51:36.956Z,5.06
2022-12-03T09:54:11.007Z,5.34
2022-12-03T09:56:39.155Z,5.49
2022-12-03T09:59:14.752Z,5.60
2022-12-03T10:01:42.499Z,5.87
2022-12-03T10:04:11.088Z,5.86
2022-12-03T10:06:45.870Z,5.86
2022-12-03T10:09:17.654Z,6.30
2022-12-03T10:11:47.829Z,6.67
2022-12-03T10:14:20.789Z,7.50
2022-12-03T10:16:51.001Z,7.83
2022-12-03T10:19:24.490Z,7.83
2022-12-03T10:21:52.167Z,7.45
2022-12-03T10:24:32.431Z,6.96
2022-12-03T10:27:23.539Z,6.69
2022-12-03T10:30:01.541Z,6.69
2022-12-03T10:32:47.724Z,6.99
2022-12-03T10:35:20.615Z,7.37
2022-12-03T10:38:08.604Z,7.52
2022-12-03T10:40:40.500Z,7.48
2022-12-03T10:43:22.986Z,7.40
2022-12-03T10:46:02.075Z,7.53
2022-12-03T10:48:31.638Z,7.80
2022-12-03T10:51:21.338Z,7.90
2022-12-03T10:53:50.616Z,7.93
2022-12-03T10:56:27.802Z,7.82
2022-12-03T10:58:56.367Z,7.89
2022-12-03T11:01:26.772Z,7.99
2022-12-03T11:06:24.661Z,7.41
2022-12-03T11:08:58.364Z,7.54
2022-12-03T11:11:32.046Z,7.84
2022-12-03T11:14:04.703Z,7.88
2022-12-03T11:16:52.503Z,7.92
2022-12-03T11:19:44.862Z,7.92
2022-12-03T11:22:13.516Z,7.79
2022-12-03T11:24:41.812Z,7.88
2022-12-03T11:27:18.806Z,7.65
2022-12-03T11:30:00.986Z,7.80
2022-12-03T11:32:43.754Z,7.67
2022-12-03T11:35:37.381Z,7.78
2022-12-03T11:38:40.909Z,7.91
2022-12-03T11:41:28.957Z,7.90
2022-12-03T11:43:56.632Z,8.30
2022-12-03T11:46:41.678Z,8.63
2022-12-03T11:49:25.534Z,8.50
2022-12-03T11:51:53.230Z,8.49
2022-12-03T11:54:25.485Z,8.57
2022-12-03T11:56:56.400Z,8.47
2022-12-03T11:59:24.114Z,8.40
2022-12-03T12:01:51.670Z,8.54
2022-12-03T12:04:32.196Z,8.50
2022-12-03T12:07:00.514Z,8.83
2022-12-03T12:09:57.391Z,8.95
2022-12-03T12:12:32.159Z,8.99
2022-12-03T12:15:00.312Z,9.13
2022-12-03T12:17:34.019Z,8.94
2022-12-03T12:20:35.630Z,8.60
2022-12-03T12:23:23.679Z,8.87
2022-12-03T12:25:54.333Z,8.77
2022-12-03T12:28:22.164Z,8.53
2022-12-03T12:30:49.704Z,8.25
2022-12-03T12:33:26.788Z,7.93
2022-12-03T12:35:54.918Z,8.07
2022-12-03T12:38:24.320Z,7.83
2022-12-03T12:40:52.216Z,7.80
2022-12-03T12:43:24.901Z,7.65
2022-12-03T12:45:57.632Z,7.54
2022-12-03T12:48:28.302Z,7.41
2022-12-03T12:51:02.890Z,7.09
2022-12-03T12:53:33.995Z,6.87
2022-12-03T12:56:27.992Z,6.71
2022-12-03T12:59:10.622Z,6.67
2022-12-03T13:01:38.558Z,6.51
2022-12-03T13:04:16.154Z,6.44
2022-12-03T13:06:44.658Z,6.41
2022-12-03T13:09:25.864Z,6.40
2022-12-03T13:12:03.974Z,6.40
2022-12-03T13:14:36.161Z,6.48
2022-12-03T13:17:18.480Z,6.55
2022-12-03T13:19:48.629Z,6.48
2022-12-03T13:22:22.398Z,6.44
2022-12-03T13:24:56.084Z,6.47
2022-12-03T13:27:29.500Z,6.45
2022-12-03T13:30:00.227Z,6.33
2022-12-03T13:32:34.471Z,6.29
2022-12-03T13:35:30.521Z,6.28
2022-12-03T13:38:00.457Z,6.23
2022-12-03T13:40:35.039Z,6.26
2022-12-03T13:43:11.405Z,6.16
2022-12-03T13:45:50.387Z,6.18
2022-12-03T13:48:24.990Z,6.22
2022-12-03T13:50:53.612Z,6.21
2022-12-03T13:53:22.998Z,6.17
2022-12-03T13:55:54.694Z,6.23
2022-12-03T13:58:22.259Z,6.17
2022-12-03T14:00:49.940Z,6.17
2022-12-03T14:03:17.605Z,6.13
2022-12-03T14:05:47.756Z,6.14
2022-12-03T14:08:15.363Z,6.12
2022-12-03T14:10:42.925Z,6.13
2022-12-03T14:13:11.238Z,6.08
2022-12-03T14:15:38.835Z,6.05
2022-12-03T14:18:06.413Z,6.05
2022-12-03T14:20:36.572Z,6.05
2022-12-03T14:23:06.041Z,6.00
2022-12-03T14:25:33.649Z,6.01
2022-12-03T14:28:01.422Z,5.95
2022-12-03T14:30:31.443Z,5.96
2022-12-03T14:32:59.022Z,5.92
2022-12-03T14:35:26.631Z,5.90
2022-12-03T14:37:54.314Z,5.86
2022-12-03T14:40:22.417Z,5.82
2022-12-03T14:42:52.641Z,5.79
2022-12-03T14:45:23.462Z,5.73
2022-12-03T14:47:51.017Z,5.70
2022-12-03T14:50:18.658Z,5.65
2022-12-03T14:52:46.251Z,5.60
2022-12-03T14:55:13.955Z,5.48
2022-12-03T14:57:41.601Z,5.45
2022-12-03T15:00:09.934Z,5.46
2022-12-03T15:02:37.609Z,5.28
2022-12-03T15:05:05.533Z,5.45
2022-12-03T15:07:33.402Z,5.46
2022-12-03T15:10:01.313Z,5.46
2022-12-03T15:12:28.865Z,5.47
2022-12-03T15:14:57.417Z,5.50
2022-12-03T15:17:31.393Z,5.49
2022-12-03T15:19:59.661Z,5.46
2022-12-03T15:22:27.253Z,5.40
2022-12-03T15:24:54.756Z,5.31
2022-12-03T15:27:22.369Z,5.27
2022-12-03T15:29:49.916Z,5.22
2022-12-03T15:32:17.473Z,5.17
2022-12-03T15:34:45.117Z,5.08
2022-12-03T15:37:12.650Z,5.02
2022-12-03T15:39:48.492Z,5.02
2022-12-03T15:42:16.429Z,4.95
2022-12-03T15:44:44.117Z,4.89
2022-12-03T15:47:11.715Z,4.87
2022-12-03T15:49:39.249Z,4.83
2022-12-03T15:52:09.175Z,4.77
2022-12-03T15:54:36.752Z,4.73
2022-12-03T15:57:04.317Z,4.69
2022-12-03T15:59:31.896Z,4.65
2022-12-03T16:01:59.490Z,4.71
2022-12-03T16:04:27.091Z,4.66
2022-12-03T16:06:54.709Z,4.65
2022-12-03T16:09:27.104Z,4.64
2022-12-03T16:11:57.685Z,4.67
2022-12-03T16:14:25.237Z,4.68
2022-12-03T16:16:56.343Z,4.62
2022-12-03T16:19:23.918Z,4.61
2022-12-03T16:21:51.468Z,4.53
2022-12-03T16:24:19.006Z,4.52
2022-12-03T16:26:46.517Z,4.51
2022-12-03T16:29:14.924Z,4.52
2022-12-03T16:31:42.511Z,4.47
2022-12-03T16:34:15.499Z,4.42
2022-12-03T16:36:43.101Z,4.42
2022-12-03T16:39:12.674Z,4.41
2022-12-03T16:41:40.922Z,4.38
2022-12-03T16:44:19.895Z,4.36
2022-12-03T16:46:48.221Z,4.32
2022-12-03T16:49:15.831Z,4.29
2022-12-03T16:51:43.412Z,4.31
2022-12-03T16:54:11.786Z,4.31
2022-12-03T16:56:39.346Z,4.31
2022-12-03T16:59:06.892Z,4.31
2022-12-03T17:01:34.394Z,4.32
2022-12-03T17:04:02.016Z,4.33
2022-12-03T17:06:29.756Z,4.31
2022-12-03T17:08:57.766Z,4.26
2022-12-03T17:11:25.273Z,4.25
2022-12-03T17:13:52.884Z,4.25
2022-12-03T17:16:22.896Z,4.18
2022-12-03T17:18:50.511Z,4.21
2022-12-03T17:21:18.067Z,4.19
2022-12-03T17:23:48.815Z,4.18
2022-12-03T17:26:16.425Z,4.15
2022-12-03T17:28:44.041Z,4.15
2022-12-03T17:31:12.839Z,4.16
2022-12-03T17:33:40.726Z,4.15
2022-12-03T17:36:13.630Z,4.13
2022-12-03T17:38:41.338Z,4.11
2022-12-03T17:41:09.054Z,4.11
2022-12-03T17:43:36.607Z,4.06
2022-12-03T17:46:05.132Z,4.22
2022-12-03T17:48:32.789Z,4.15
2022-12-03T17:51:03.194Z,4.15
2022-12-03T17:53:30.844Z,4.08
2022-12-03T17:55:58.403Z,4.11
2022-12-03T17:58:26.711Z,4.06
2022-12-03T18:00:58.776Z,4.03
2022-12-03T18:03:29.935Z,3.97
2022-12-03T18:05:57.652Z,3.95
2022-12-03T18:08:25.209Z,3.98
2022-12-03T18:10:55.323Z,4.01
2022-12-03T18:13:25.510Z,3.95
2022-12-03T18:15:55.788Z,3.92
2022-12-03T18:18:24.651Z,3.88
2022-12-03T18:20:54.245Z,3.85
2022-12-03T18:23:21.861Z,3.84
2022-12-03T18:25:49.496Z,3.90
2022-12-03T18:28:19.254Z,3.89
2022-12-03T18:30:52.431Z,3.91
2022-12-03T18:33:21.320Z,3.87
2022-12-03T18:35:48.995Z,3.85
2022-12-03T18:38:18.523Z,3.87
2022-12-03T18:40:46.982Z,3.82
2022-12-03T18:43:16.282Z,3.77
2022-12-03T18:45:44.403Z,3.80
2022-12-03T18:48:18.174Z,3.75
2022-12-03T18:50:47.078Z,3.75
2022-12-03T18:53:17.028Z,3.75
2022-12-03T18:55:47.032Z,3.71
2022-12-03T18:58:14.629Z,3.66
2022-12-03T19:00:44.837Z,3.61
2022-12-03T19:03:12.519Z,3.58
2022-12-03T19:05:40.165Z,3.60
2022-12-03T19:08:14.605Z,3.60
2022-12-03T19:10:44.361Z,3.62
2022-12-03T19:13:14.557Z,3.66
2022-12-03T19:15:42.137Z,3.69
2022-12-03T19:18:12.326Z,3.66
2022-12-03T19:20:41.886Z,3.65
2022-12-03T19:23:10.341Z,3.68
2022-12-03T19:25:37.896Z,3.69
2022-12-03T19:28:05.555Z,3.75
2022-12-03T19:30:33.173Z,3.71
2022-12-03T19:33:02.623Z,3.66
2022-12-03T19:35:31.325Z,3.67
2022-12-03T19:38:01.328Z,3.74
2022-12-03T19:40:32.120Z,3.75
2022-12-03T19:42:59.699Z,3.76
2022-12-03T19:45:27.285Z,3.72
2022-12-03T19:47:55.458Z,3.68
2022-12-03T19:50:23.785Z,3.65
2022-12-03T19:52:54.156Z,3.63
2022-12-03T19:55:21.795Z,3.62
2022-12-03T19:57:49.445Z,3.65
2022-12-03T20:00:17.300Z,3.66
2022-12-03T20:02:44.883Z,3.53
2022-12-03T20:05:12.489Z,3.69
2022-12-03T20:07:40.030Z,3.76
2022-12-03T20:10:08.163Z,3.79
2022-12-03T20:12:35.815Z,3.81
2022-12-03T20:15:03.330Z,3.86
2022-12-03T20:17:35.813Z,3.87
2022-12-03T20:20:03.403Z,3.91
2022-12-03T20:22:30.958Z,3.98
2022-12-03T20:24:58.484Z,4.02
2022-12-03T20:27:26.049Z,4.08
2022-12-03T20:29:55.970Z,4.14
2022-12-03T20:32:23.870Z,4.18
2022-12-03T20:34:53.796Z,4.17
2022-12-03T20:37:21.448Z,4.15
2022-12-03T20:39:52.177Z,4.10
2022-12-03T20:42:20.039Z,4.13
2022-12-03T20:44:47.657Z,4.11
2022-12-03T20:47:16.008Z,4.11
2022-12-03T20:49:43.662Z,4.10
2022-12-03T20:52:13.054Z,4.08
2022-12-03T20:54:40.647Z,4.00
2022-12-03T20:57:08.677Z,4.07
2022-12-03T20:59:38.435Z,4.05
2022-12-03T21:02:06.247Z,3.82
2022-12-03T21:04:33.904Z,4.01
2022-12-03T21:07:01.445Z,4.01
2022-12-03T21:09:29.082Z,4.00
2022-12-03T21:11:59.241Z,3.98
2022-12-03T21:14:26.774Z,4.01
2022-12-03T21:17:13.891Z,4.05
2022-12-03T21:19:43.948Z,4.01
2022-12-03T21:22:11.516Z,4.04
2022-12-03T21:24:39.106Z,4.03
2022-12-03T21:27:08.991Z,4.03
2022-12-03T21:29:36.724Z,4.00
2022-12-03T21:32:04.482Z,4.01
2022-12-03T21:34:36.173Z,4.02
2022-12-03T21:37:04.132Z,4.04
2022-12-03T21:39:31.747Z,4.01
2022-12-03T21:42:35.284Z,4.02
2022-12-03T21:44:46.778Z,4.00
2022-12-03T21:47:14.720Z,4.02
2022-12-03T21:49:44.918Z,3.99
2022-12-03T21:52:14.668Z,4.00
2022-12-03T21:54:44.709Z,3.99
2022-12-03T21:57:14.356Z,4.01
2022-12-03T21:59:41.925Z,4.03
2022-12-03T22:02:14.120Z,4.07
2022-12-03T22:04:41.772Z,4.10
2022-12-03T22:07:10.465Z,4.15
2022-12-03T22:09:40.482Z,4.12
2022-12-03T22:12:08.163Z,4.20
2022-12-03T22:14:37.816Z,4.18
2022-12-03T22:17:05.552Z,4.14
2022-12-03T22:19:33.407Z,4.12
2022-12-03T22:22:01.988Z,4.08
2022-12-03T22:24:29.623Z,4.01
2022-12-03T22:26:59.546Z,3.98
2022-12-03T22:29:27.074Z,3.93
2022-12-03T22:31:57.004Z,3.87
2022-12-03T22:34:24.611Z,3.83
2022-12-03T22:36:52.131Z,3.74
2022-12-03T22:39:19.769Z,3.75
2022-12-03T22:41:47.324Z,3.76
2022-12-03T22:44:15.186Z,3.78
2022-12-03T22:46:46.542Z,3.80
2022-12-03T22:49:14.744Z,3.88
2022-12-03T22:51:45.553Z,3.89
2022-12-03T22:54:18.323Z,3.87
2022-12-03T22:56:49.933Z,3.95
2022-12-03T22:59:17.537Z,3.99
2022-12-03T23:01:45.093Z,4.05
2022-12-03T23:04:13.070Z,4.08
2022-12-03T23:06:41.257Z,4.09
2022-12-03T23:09:08.967Z,4.12
2022-12-03T23:11:37.401Z,4.14
2022-12-03T23:14:07.189Z,4.11
2022-12-03T23:16:35.034Z,4.05
2022-12-03T23:19:04.472Z,4.00
2022-12-03T23:21:37.560Z,3.92
2022-12-03T23:24:10.791Z,3.88
2022-12-03T23:26:39.455Z,3.89
2022-12-03T23:29:08.823Z,3.90
2022-12-03T23:31:37.229Z,3.86
2022-12-03T23:34:07.522Z,3.88
2022-12-03T23:36:35.571Z,3.92
2022-12-03T23:39:05.421Z,3.98
2022-12-03T23:41:33.121Z,4.05
2022-12-03T23:44:00.710Z,4.07
2022-12-03T23:46:28.668Z,4.08
2022-12-03T23:48:58.444Z,4.05
2022-12-03T23:51:27.978Z,3.97
2022-12-03T23:53:59.135Z,3.91
2022-12-03T23:56:30.629Z,3.86
2022-12-03T23:58:59.452Z,3.83
